Fontana, California
Current Conditions -  °F | °C
As of 6:53 AM on Friday 28 Nov 2014 (Local Time) from KONT Reporting Station
Scattered Clouds Scattered Clouds  
Wind Chill: 52°   Ceiling: Unl
Heat Index: 52°   Visibility: 10mi
Dew Point: 30°   Wind: 3mph
Humidity: 43%   Direction: 40°NE
Pressure: 30.01"   Gusts: NA
Location:  34.1°N, 117.43°W
Report Text: KONT 281453Z 04003KT 10SM SCT080 11/M01 A3001 RMK AO2 SLP155 FU SCT080 T01111011 53000
Loading
Personal Weather Stations






























Interactive Weather Map New forecast layout! Learn more

10-Day Weather Forecast

Advertisements
Track Severe Weather on mobile